createdAt,value
2023-05-03T00:00:19.612Z,96960.97
2023-05-03T00:01:21.396Z,96963.56
2023-05-03T00:02:23.052Z,96959.78
2023-05-03T00:03:25.566Z,96963.75
2023-05-03T00:04:27.152Z,96963.22
2023-05-03T00:05:28.791Z,96951.78
2023-05-03T00:06:31.497Z,96952.97
2023-05-03T00:07:33.173Z,96952.97
2023-05-03T00:08:34.743Z,96942.66
2023-05-03T00:09:36.321Z,96940.09
2023-05-03T00:10:37.850Z,96948.50
2023-05-03T00:11:39.430Z,96944.94
2023-05-03T00:12:41.172Z,96946.41
2023-05-03T00:13:43.397Z,96940.72
2023-05-03T00:14:45.999Z,96938.47
2023-05-03T00:15:47.642Z,96936.75
2023-05-03T00:16:49.242Z,96923.06
2023-05-03T00:17:51.506Z,96925.41
2023-05-03T00:18:53.085Z,96927.63
2023-05-03T00:19:56.407Z,96928.34
2023-05-03T00:21:01.424Z,96926.63
2023-05-03T00:22:03.924Z,96923.19
2023-05-03T00:23:05.726Z,96920.19
2023-05-03T00:24:07.354Z,96916.47
2023-05-03T00:25:10.105Z,96910.31
2023-05-03T00:26:11.638Z,96912.53
2023-05-03T00:27:13.169Z,96907.81
2023-05-03T00:28:14.673Z,96898.09
2023-05-03T00:29:16.516Z,96907.59
2023-05-03T00:30:19.306Z,96904.47
2023-05-03T00:31:21.080Z,96898.34
2023-05-03T00:32:23.180Z,96899.25
2023-05-03T00:33:24.854Z,96896.13
2023-05-03T00:34:26.367Z,96886.78
2023-05-03T00:35:28.228Z,96894.09
2023-05-03T00:36:31.058Z,96884.72
2023-05-03T00:37:32.768Z,96886.56
2023-05-03T00:38:34.267Z,96880.50
2023-05-03T00:39:36.278Z,96878.31
2023-05-03T00:40:37.881Z,96880.09
2023-05-03T00:41:39.601Z,96888.06
2023-05-03T00:42:41.216Z,96889.47
2023-05-03T00:43:42.860Z,96882.31
2023-05-03T00:44:44.599Z,96893.00
2023-05-03T00:45:47.575Z,96887.44
2023-05-03T00:46:49.851Z,96884.25
2023-05-03T00:47:51.598Z,96887.56
2023-05-03T00:48:53.555Z,96892.81
2023-05-03T00:49:55.159Z,96890.06
2023-05-03T00:50:58.586Z,96889.94
2023-05-03T00:52:00.163Z,96885.28
2023-05-03T00:53:01.770Z,96881.28
2023-05-03T00:54:04.028Z,96876.63
2023-05-03T00:55:07.567Z,96881.91
2023-05-03T00:56:09.718Z,96877.56
2023-05-03T00:57:11.946Z,96878.44
2023-05-03T00:58:13.558Z,96879.88
2023-05-03T00:59:15.300Z,96877.53
2023-05-03T01:00:17.898Z,96882.91
2023-05-03T01:01:19.644Z,96883.78
2023-05-03T01:02:21.816Z,96882.56
2023-05-03T01:03:23.991Z,96886.31
2023-05-03T01:04:25.843Z,96881.28
2023-05-03T01:05:32.510Z,96877.34
2023-05-03T01:06:46.114Z,96889.94
2023-05-03T01:08:15.530Z,96890.81
2023-05-03T01:09:29.579Z,96885.88
2023-05-03T01:10:56.015Z,96894.22
2023-05-03T01:12:13.017Z,96891.97
2023-05-03T01:13:39.400Z,96887.00
2023-05-03T01:14:53.167Z,96891.25
2023-05-03T01:16:06.538Z,96891.19
2023-05-03T01:17:14.208Z,96890.22
2023-05-03T01:18:22.123Z,96892.72
2023-05-03T01:19:38.958Z,96897.69
2023-05-03T01:20:44.270Z,96899.69
2023-05-03T01:21:50.364Z,96902.81
2023-05-03T01:22:58.046Z,96900.38
2023-05-03T01:24:13.831Z,96910.44
2023-05-03T01:25:16.251Z,96911.94
2023-05-03T01:26:17.758Z,96917.94
2023-05-03T01:27:19.381Z,96916.88
2023-05-03T01:28:21.312Z,96904.13
2023-05-03T01:29:22.855Z,96896.22
2023-05-03T01:30:27.628Z,96893.78
2023-05-03T01:31:34.906Z,96897.50
2023-05-03T01:33:01.444Z,96888.22
2023-05-03T01:34:36.684Z,96890.28
2023-05-03T01:36:02.607Z,96888.88
2023-05-03T01:37:04.786Z,96889.81
2023-05-03T01:38:08.246Z,96888.25
2023-05-03T01:39:19.654Z,96878.28
2023-05-03T01:40:22.740Z,96876.28
2023-05-03T01:41:27.007Z,96882.44
2023-05-03T01:42:29.844Z,96883.91
2023-05-03T01:43:33.353Z,96888.09
2023-05-03T01:44:36.650Z,96891.91
2023-05-03T01:45:38.384Z,96902.75
2023-05-03T01:46:44.876Z,96899.72
2023-05-03T01:47:46.467Z,96893.22
2023-05-03T01:48:48.264Z,96892.31
2023-05-03T01:49:49.962Z,96884.25
2023-05-03T01:50:51.524Z,96884.50
2023-05-03T01:51:53.052Z,96892.94
2023-05-03T01:52:54.597Z,96889.22
2023-05-03T01:53:56.474Z,96884.88
2023-05-03T01:54:59.518Z,96890.84
2023-05-03T01:56:01.045Z,96893.00
2023-05-03T01:57:03.109Z,96896.81
2023-05-03T01:58:04.725Z,96894.56
2023-05-03T01:59:06.381Z,96880.31
2023-05-03T02:00:09.308Z,96875.38
2023-05-03T02:01:10.957Z,96870.69
2023-05-03T02:02:12.621Z,96876.75
2023-05-03T02:03:14.309Z,96871.38
2023-05-03T02:04:15.884Z,96867.47
2023-05-03T02:05:17.529Z,96869.72
2023-05-03T02:06:19.251Z,96868.94
2023-05-03T02:07:20.952Z,96874.19
2023-05-03T02:08:22.476Z,96885.66
2023-05-03T02:09:25.082Z,96877.94
2023-05-03T02:10:26.772Z,96881.16
2023-05-03T02:11:28.388Z,96880.72
2023-05-03T02:12:30.034Z,96874.81
2023-05-03T02:13:31.544Z,96884.88
2023-05-03T02:14:33.141Z,96881.06
2023-05-03T02:15:34.731Z,96868.75
2023-05-03T02:16:36.469Z,96872.53
2023-05-03T02:17:38.955Z,96872.91
2023-05-03T02:18:40.518Z,96874.81
2023-05-03T02:19:42.125Z,96872.00
2023-05-03T02:20:45.774Z,96872.47
2023-05-03T02:21:47.307Z,96867.16
2023-05-03T02:22:48.851Z,96867.88
2023-05-03T02:23:50.521Z,96870.97
2023-05-03T02:24:52.232Z,96876.72
2023-05-03T02:25:53.747Z,96872.13
2023-05-03T02:26:55.754Z,96870.97
2023-05-03T02:27:57.311Z,96877.06
2023-05-03T02:28:58.875Z,96875.25
2023-05-03T02:30:01.417Z,96877.69
2023-05-03T02:31:06.242Z,96872.75
2023-05-03T02:32:07.901Z,96869.59
2023-05-03T02:33:09.735Z,96866.59
2023-05-03T02:34:11.843Z,96865.34
2023-05-03T02:35:13.426Z,96872.53
2023-05-03T02:36:15.028Z,96872.53
2023-05-03T02:37:16.906Z,96874.91
2023-05-03T02:38:18.721Z,96884.00
2023-05-03T02:39:20.299Z,96880.19
2023-05-03T02:40:21.971Z,96879.16
2023-05-03T02:41:23.580Z,96882.63
2023-05-03T02:42:25.167Z,96882.63
2023-05-03T02:43:26.849Z,96883.50
2023-05-03T02:44:28.808Z,96890.47
2023-05-03T02:45:30.371Z,96886.75
2023-05-03T02:46:31.979Z,96879.88
2023-05-03T02:47:33.680Z,96885.94
2023-05-03T02:48:35.612Z,96886.28
2023-05-03T02:49:37.256Z,96884.38
2023-05-03T02:50:39.874Z,96888.19
2023-05-03T02:51:41.589Z,96890.22
2023-05-03T02:52:43.193Z,96890.22
2023-05-03T02:53:44.765Z,96892.19
2023-05-03T02:54:47.252Z,96891.25
2023-05-03T02:55:49.793Z,96883.31
2023-05-03T02:56:51.470Z,96886.94
2023-05-03T02:57:53.000Z,96889.16
2023-05-03T02:58:55.146Z,96899.50
2023-05-03T02:59:56.720Z,96913.50
2023-05-03T03:00:58.272Z,96908.44
2023-05-03T03:01:59.993Z,96911.56
2023-05-03T03:03:01.871Z,96914.69
2023-05-03T03:04:03.771Z,96920.88
2023-05-03T03:05:05.663Z,96931.53
2023-05-03T03:06:07.415Z,96937.41
2023-05-03T03:07:09.020Z,96944.31
2023-05-03T03:08:10.641Z,96940.31
2023-05-03T03:09:12.656Z,96941.84
2023-05-03T03:10:14.227Z,96940.75
2023-05-03T03:11:15.872Z,96946.66
2023-05-03T03:12:17.697Z,96952.03
2023-05-03T03:13:19.257Z,96961.00
2023-05-03T03:14:20.895Z,96968.72
2023-05-03T03:15:22.443Z,96959.97
2023-05-03T03:16:24.009Z,96967.03
2023-05-03T03:17:26.185Z,96978.31
2023-05-03T03:18:27.712Z,96985.16
2023-05-03T03:19:29.284Z,96987.13
2023-05-03T03:20:30.836Z,96989.84
2023-05-03T03:21:32.679Z,97001.16
2023-05-03T03:22:34.196Z,97007.06
2023-05-03T03:23:35.764Z,97011.44
2023-05-03T03:24:37.416Z,97015.69
2023-05-03T03:25:38.931Z,97023.22
2023-05-03T03:26:40.638Z,97025.47
2023-05-03T03:27:42.188Z,97037.34
2023-05-03T03:28:44.788Z,97022.75
2023-05-03T03:29:46.832Z,97030.16
2023-05-03T03:30:48.459Z,97042.50
2023-05-03T03:31:50.006Z,97038.00
2023-05-03T03:32:52.878Z,97029.91
2023-05-03T03:33:54.517Z,97019.75
2023-05-03T03:34:56.187Z,97031.75
2023-05-03T03:35:57.709Z,97019.41
2023-05-03T03:36:59.226Z,97024.09
2023-05-03T03:38:00.728Z,97031.25
2023-05-03T03:39:02.277Z,97030.22
2023-05-03T03:40:04.484Z,97026.16
2023-05-03T03:41:06.330Z,97024.75
2023-05-03T03:42:08.964Z,97028.31
2023-05-03T03:43:10.510Z,97027.38
2023-05-03T03:44:12.054Z,97029.78
2023-05-03T03:45:14.765Z,97029.09
2023-05-03T03:46:18.509Z,97030.66
2023-05-03T03:47:21.137Z,97037.19
2023-05-03T03:48:23.793Z,97031.53
2023-05-03T03:49:27.134Z,97035.44
2023-05-03T03:50:29.065Z,97034.75
2023-05-03T03:51:31.611Z,97033.53
2023-05-03T03:52:33.219Z,97032.31
2023-05-03T03:53:34.940Z,97035.38
2023-05-03T03:54:36.815Z,97037.44
2023-05-03T03:55:41.566Z,97044.41
2023-05-03T03:56:43.560Z,97036.75
2023-05-03T03:57:45.142Z,97034.94
2023-05-03T03:58:46.694Z,97047.28
2023-05-03T03:59:48.236Z,97056.97
2023-05-03T04:00:50.083Z,97053.97
2023-05-03T04:01:51.807Z,97062.97
2023-05-03T04:02:53.487Z,97062.06
2023-05-03T04:03:55.193Z,97059.84
2023-05-03T04:04:56.835Z,97064.31
2023-05-03T04:05:58.404Z,97061.22
2023-05-03T04:06:59.952Z,97072.78
2023-05-03T04:08:01.613Z,97073.16
2023-05-03T04:09:03.163Z,97075.94
2023-05-03T04:10:05.605Z,97068.63
2023-05-03T04:11:14.296Z,97076.16
2023-05-03T04:12:15.845Z,97070.66
2023-05-03T04:13:17.394Z,97070.31
2023-05-03T04:14:19.056Z,97074.34
2023-05-03T04:15:20.672Z,97073.41
2023-05-03T04:16:23.192Z,97069.28
2023-05-03T04:17:24.813Z,97070.38
2023-05-03T04:18:26.837Z,97070.38
2023-05-03T04:19:28.532Z,97069.06
2023-05-03T04:20:30.078Z,97077.59
2023-05-03T04:21:31.657Z,97074.00
2023-05-03T04:22:33.827Z,97071.75
2023-05-03T04:23:35.683Z,97077.34
2023-05-03T04:24:41.854Z,97079.81
2023-05-03T04:25:46.653Z,97077.53
2023-05-03T04:26:48.246Z,97083.63
2023-05-03T04:27:49.794Z,97087.22
2023-05-03T04:28:51.938Z,97087.88
2023-05-03T04:29:53.733Z,97089.38
2023-05-03T04:30:55.378Z,97098.13
2023-05-03T04:31:57.323Z,97090.72
2023-05-03T04:33:00.700Z,97092.03
2023-05-03T04:34:02.389Z,97094.59
2023-05-03T04:35:09.509Z,97096.25
2023-05-03T04:36:15.290Z,97094.00
2023-05-03T04:37:17.758Z,97094.50
2023-05-03T04:38:20.105Z,97096.19
2023-05-03T04:39:22.376Z,97093.91
2023-05-03T04:40:23.956Z,97090.09
2023-05-03T04:41:25.730Z,97087.13
2023-05-03T04:42:27.369Z,97096.25
2023-05-03T04:43:28.904Z,97089.91
2023-05-03T04:44:30.447Z,97085.31
2023-05-03T04:45:32.087Z,97077.09
2023-05-03T04:46:33.858Z,97073.16
2023-05-03T04:47:36.582Z,97077.34
2023-05-03T04:48:38.302Z,97072.28
2023-05-03T04:49:39.971Z,97059.78
2023-05-03T04:50:41.548Z,97066.13
2023-05-03T04:51:43.188Z,97065.63
2023-05-03T04:52:45.125Z,97065.03
2023-05-03T04:53:46.644Z,97058.97
2023-05-03T04:54:48.247Z,97051.31
2023-05-03T04:55:50.825Z,97057.16
2023-05-03T04:56:53.866Z,97053.34
2023-05-03T04:57:55.899Z,97044.56
2023-05-03T04:58:57.680Z,97042.31
2023-05-03T04:59:59.189Z,97033.28
2023-05-03T05:01:01.039Z,97025.19
2023-05-03T05:02:02.774Z,97023.09
2023-05-03T05:03:06.397Z,97021.28
2023-05-03T05:04:08.443Z,97018.22
2023-05-03T05:05:11.197Z,97013.09
2023-05-03T05:06:12.980Z,97013.97
2023-05-03T05:07:14.730Z,97010.31
2023-05-03T05:08:16.542Z,97007.28
2023-05-03T05:09:26.023Z,97009.34
2023-05-03T05:10:27.582Z,97014.75
2023-05-03T05:11:29.161Z,97022.56
2023-05-03T05:12:30.820Z,97030.78
2023-05-03T05:13:32.449Z,97029.97
2023-05-03T05:14:34.012Z,97044.25
2023-05-03T05:15:35.812Z,97047.03
2023-05-03T05:16:37.570Z,97056.31
2023-05-03T05:17:39.355Z,97060.50
2023-05-03T05:18:41.118Z,97053.44
2023-05-03T05:19:42.626Z,97049.25
2023-05-03T05:20:44.178Z,97046.56
2023-05-03T05:21:45.880Z,97042.94
2023-05-03T05:22:47.453Z,97046.84
2023-05-03T05:23:48.956Z,97045.00
2023-05-03T05:24:50.497Z,97050.50
2023-05-03T05:25:54.015Z,97046.22
2023-05-03T05:26:55.921Z,97046.94
2023-05-03T05:27:57.463Z,97045.72
2023-05-03T05:28:59.100Z,97057.81
2023-05-03T05:30:01.258Z,97069.03
2023-05-03T05:31:02.917Z,97068.84
2023-05-03T05:32:05.430Z,97073.97
2023-05-03T05:33:07.101Z,97069.63
2023-05-03T05:34:08.754Z,97068.84
2023-05-03T05:35:10.384Z,97066.59
2023-05-03T05:36:11.941Z,97067.25
2023-05-03T05:37:13.462Z,97060.22
2023-05-03T05:38:17.516Z,97063.19
2023-05-03T05:39:19.108Z,97064.31
2023-05-03T05:40:21.231Z,97053.78
2023-05-03T05:41:22.919Z,97057.88
2023-05-03T05:42:24.702Z,97054.13
2023-05-03T05:43:26.320Z,97057.94
2023-05-03T05:44:27.940Z,97061.25
2023-05-03T05:45:29.549Z,97059.19
2023-05-03T05:46:31.277Z,97061.44
2023-05-03T05:47:32.932Z,97061.34
2023-05-03T05:48:34.604Z,97057.59
2023-05-03T05:49:36.372Z,97056.97
2023-05-03T05:50:37.904Z,97052.28
2023-05-03T05:51:39.513Z,97052.41
2023-05-03T05:52:41.411Z,97059.25
2023-05-03T05:53:43.365Z,97051.28
2023-05-03T05:54:44.968Z,97047.44
2023-05-03T05:55:46.524Z,97051.03
2023-05-03T05:56:48.354Z,97050.25
2023-05-03T05:57:49.934Z,97034.41
2023-05-03T05:58:51.664Z,97038.13
2023-05-03T05:59:54.190Z,97032.13
2023-05-03T06:01:01.327Z,97031.69
2023-05-03T06:02:03.120Z,97027.94
2023-05-03T06:03:05.259Z,97029.91
2023-05-03T06:04:07.067Z,97027.84
2023-05-03T06:05:09.415Z,97032.97
2023-05-03T06:06:11.186Z,97038.72
2023-05-03T06:07:12.822Z,97041.31
2023-05-03T06:08:14.363Z,97040.09
2023-05-03T06:09:24.112Z,97043.41
2023-05-03T06:10:26.562Z,97039.00
2023-05-03T06:11:28.147Z,97045.59
2023-05-03T06:12:30.427Z,97036.91
2023-05-03T06:13:34.294Z,97028.22
2023-05-03T06:14:35.895Z,97035.72
2023-05-03T06:15:37.655Z,97033.28
2023-05-03T06:16:39.333Z,97032.16
2023-05-03T06:17:41.006Z,97037.69
2023-05-03T06:18:42.733Z,97038.06
2023-05-03T06:19:45.137Z,97037.94
2023-05-03T06:20:50.601Z,97047.88
2023-05-03T06:21:52.445Z,97043.25
2023-05-03T06:22:54.002Z,97042.31
2023-05-03T06:23:55.677Z,97039.38
2023-05-03T06:24:58.037Z,97049.94
2023-05-03T06:25:59.728Z,97048.81
2023-05-03T06:27:01.319Z,97052.03
2023-05-03T06:28:02.931Z,97053.44
2023-05-03T06:29:04.513Z,97056.75
2023-05-03T06:30:06.773Z,97052.94
2023-05-03T06:31:08.539Z,97059.44
2023-05-03T06:32:10.573Z,97053.88
2023-05-03T06:33:14.583Z,97059.88
2023-05-03T06:34:21.625Z,97056.41
2023-05-03T06:35:23.777Z,97060.03
2023-05-03T06:36:25.762Z,97053.84
2023-05-03T06:37:27.372Z,97059.84
2023-05-03T06:38:28.917Z,97061.44
2023-05-03T06:39:31.173Z,97062.19
2023-05-03T06:40:33.402Z,97053.84
2023-05-03T06:41:34.964Z,97063.16
2023-05-03T06:42:36.636Z,97060.13
2023-05-03T06:43:38.249Z,97062.47
2023-05-03T06:44:39.769Z,97060.22
2023-05-03T06:45:42.938Z,97052.47
2023-05-03T06:46:44.602Z,97066.31
2023-05-03T06:47:46.402Z,97062.47
2023-05-03T06:48:48.019Z,97057.06
2023-05-03T06:49:49.654Z,97059.63
2023-05-03T06:50:51.288Z,97061.53
2023-05-03T06:51:52.922Z,97056.13
2023-05-03T06:52:54.825Z,97059.69
2023-05-03T06:53:57.595Z,97065.09
2023-05-03T06:54:59.294Z,97052.75
2023-05-03T06:56:00.864Z,97066.59
2023-05-03T06:57:02.545Z,97065.78
2023-05-03T06:58:09.995Z,97059.00
2023-05-03T06:59:11.518Z,97067.19
2023-05-03T07:00:13.725Z,97059.38
2023-05-03T07:01:15.793Z,97053.47
2023-05-03T07:02:18.787Z,97062.16
2023-05-03T07:03:20.930Z,97066.41
2023-05-03T07:04:23.290Z,97069.97
2023-05-03T07:05:24.862Z,97072.22
2023-05-03T07:06:26.646Z,97067.00
2023-05-03T07:07:28.293Z,97072.00
2023-05-03T07:08:29.850Z,97060.78
2023-05-03T07:09:42.129Z,97062.94
2023-05-03T07:10:44.965Z,97062.03
2023-05-03T07:11:50.365Z,97066.50
2023-05-03T07:12:51.933Z,97068.63
2023-05-03T07:13:54.678Z,97075.88
2023-05-03T07:14:56.299Z,97070.06
2023-05-03T07:15:58.185Z,97071.91
2023-05-03T07:16:59.810Z,97077.44
2023-05-03T07:18:01.473Z,97081.56
2023-05-03T07:19:03.277Z,97078.72
2023-05-03T07:20:05.414Z,97077.59
2023-05-03T07:21:09.231Z,97087.53
2023-05-03T07:22:11.975Z,97086.38
2023-05-03T07:23:13.522Z,97083.84
2023-05-03T07:24:15.330Z,97085.41
2023-05-03T07:25:17.926Z,97079.06
2023-05-03T07:26:19.645Z,97082.81
2023-05-03T07:27:21.442Z,97093.22
2023-05-03T07:28:23.454Z,97089.78
2023-05-03T07:29:25.136Z,97089.09
2023-05-03T07:30:26.912Z,97085.69
2023-05-03T07:31:28.620Z,97085.41
2023-05-03T07:32:30.241Z,97087.31
2023-05-03T07:33:35.750Z,97093.56
2023-05-03T07:34:37.309Z,97093.22
2023-05-03T07:35:38.847Z,97087.66
2023-05-03T07:36:40.512Z,97094.63
2023-05-03T07:37:42.577Z,97098.09
2023-05-03T07:38:44.157Z,97092.63
2023-05-03T07:39:45.777Z,97095.88
2023-05-03T07:40:47.284Z,97094.88
2023-05-03T07:41:49.135Z,97094.50
2023-05-03T07:42:50.893Z,97102.16
2023-05-03T07:43:52.487Z,97101.72
2023-05-03T07:44:55.694Z,97102.50
2023-05-03T07:45:57.293Z,97106.00
2023-05-03T07:46:59.127Z,97103.09
2023-05-03T07:48:00.802Z,97112.50
2023-05-03T07:49:04.470Z,97104.06
2023-05-03T07:50:07.178Z,97098.00
2023-05-03T07:51:08.734Z,97101.06
2023-05-03T07:52:10.347Z,97112.56
2023-05-03T07:53:12.528Z,97111.66
2023-05-03T07:54:14.111Z,97108.59
2023-05-03T07:55:20.544Z,97110.22
2023-05-03T07:56:23.986Z,97105.63
2023-05-03T07:57:25.607Z,97101.06
2023-05-03T07:58:38.913Z,97104.97
2023-05-03T07:59:45.003Z,97110.56
2023-05-03T08:00:46.505Z,97098.31
2023-05-03T08:01:48.112Z,97099.53
2023-05-03T08:02:49.864Z,97102.25
2023-05-03T08:03:51.846Z,97105.25
2023-05-03T08:04:54.884Z,97092.03
2023-05-03T08:05:56.751Z,97103.59
2023-05-03T08:07:02.513Z,97096.00
2023-05-03T08:08:05.581Z,97083.88
2023-05-03T08:09:07.252Z,97085.66
2023-05-03T08:10:09.452Z,97080.75
2023-05-03T08:11:11.878Z,97062.06
2023-05-03T08:12:13.408Z,97066.22
2023-05-03T08:13:14.984Z,97059.41
2023-05-03T08:14:16.747Z,97061.56
2023-05-03T08:15:18.318Z,97056.38
2023-05-03T08:16:20.134Z,97059.19
2023-05-03T08:17:23.158Z,97060.13
2023-05-03T08:18:24.906Z,97057.06
2023-05-03T08:19:26.770Z,97055.31
2023-05-03T08:20:28.414Z,97061.22
2023-05-03T08:21:30.355Z,97057.41
2023-05-03T08:22:31.909Z,97055.88
2023-05-03T08:23:33.483Z,97054.41
2023-05-03T08:24:35.172Z,97051.97
2023-05-03T08:25:37.320Z,97049.41
2023-05-03T08:26:39.077Z,97053.50
2023-05-03T08:27:40.711Z,97056.47
2023-05-03T08:28:42.638Z,97045.28
2023-05-03T08:29:44.213Z,97048.47
2023-05-03T08:30:45.971Z,97050.47
2023-05-03T08:31:47.668Z,97044.34
2023-05-03T08:32:49.464Z,97043.22
2023-05-03T08:33:51.756Z,97043.13
2023-05-03T08:34:54.676Z,97034.97
2023-05-03T08:35:56.307Z,97037.69
2023-05-03T08:36:58.133Z,97038.47
2023-05-03T08:37:59.653Z,97040.03
2023-05-03T08:39:06.392Z,97042.34
2023-05-03T08:40:11.939Z,97036.19
2023-05-03T08:41:27.214Z,97048.19
2023-05-03T08:42:31.900Z,97050.91
2023-05-03T08:43:38.787Z,97055.09
2023-05-03T08:44:48.524Z,97057.41
2023-05-03T08:45:50.103Z,97063.66
2023-05-03T08:46:51.764Z,97059.78
2023-05-03T08:47:56.590Z,97059.78
2023-05-03T08:48:59.989Z,97051.63
2023-05-03T08:50:05.022Z,97051.59
2023-05-03T08:51:10.133Z,97049.31
2023-05-03T08:52:14.339Z,97042.31
2023-05-03T08:53:15.912Z,97050.09
2023-05-03T08:54:20.637Z,97047.78
2023-05-03T08:55:22.313Z,97044.69
2023-05-03T08:56:29.475Z,97037.72
2023-05-03T08:57:31.859Z,97043.13
2023-05-03T08:58:35.817Z,97042.41
2023-05-03T08:59:50.817Z,97035.06
2023-05-03T09:00:52.473Z,97030.78
2023-05-03T09:01:55.143Z,97026.47
2023-05-03T09:02:56.916Z,97027.56
2023-05-03T09:03:58.633Z,97017.53
2023-05-03T09:05:00.964Z,97018.78
2023-05-03T09:06:03.513Z,97012.97
2023-05-03T09:07:09.753Z,97013.00
2023-05-03T09:08:13.578Z,97014.59
2023-05-03T09:09:16.092Z,97019.72
2023-05-03T09:10:24.556Z,97013.53
2023-05-03T09:11:29.376Z,97010.84
2023-05-03T09:12:41.007Z,97010.06
2023-05-03T09:13:42.618Z,97010.06
2023-05-03T09:14:46.094Z,97005.38
2023-05-03T09:15:55.366Z,97012.28
2023-05-03T09:17:14.483Z,97019.31
2023-05-03T09:18:18.749Z,97020.16
2023-05-03T09:19:21.628Z,97015.50
2023-05-03T09:20:35.492Z,97012.78
2023-05-03T09:21:37.997Z,97020.78
2023-05-03T09:22:52.221Z,97009.84
2023-05-03T09:23:53.962Z,97020.97
2023-05-03T09:24:57.666Z,97012.44
2023-05-03T09:26:00.466Z,97011.28
2023-05-03T09:27:17.501Z,97007.84
2023-05-03T09:28:20.393Z,97009.66
2023-05-03T09:29:30.164Z,97007.09
2023-05-03T09:30:32.113Z,96999.09
2023-05-03T09:31:35.089Z,97005.03
2023-05-03T09:32:48.280Z,97003.53
2023-05-03T09:33:50.157Z,97003.97
2023-05-03T09:34:51.792Z,96997.06
2023-05-03T09:36:01.336Z,96994.06
2023-05-03T09:37:02.996Z,96994.41
2023-05-03T09:38:04.809Z,96996.00
2023-05-03T09:39:17.123Z,97002.50
2023-05-03T09:40:18.875Z,97003.56
2023-05-03T09:41:31.264Z,96997.25
2023-05-03T09:42:32.974Z,96995.75
2023-05-03T09:43:35.998Z,96994.63
2023-05-03T09:44:42.568Z,96993.94
2023-05-03T09:45:44.227Z,96988.94
2023-05-03T09:47:04.608Z,96998.22
2023-05-03T09:48:07.537Z,96998.81
2023-05-03T09:49:09.259Z,97004.06
2023-05-03T09:50:10.967Z,96993.28
2023-05-03T09:51:13.020Z,96994.09
2023-05-03T09:52:15.102Z,96985.66
2023-05-03T09:53:19.591Z,96984.56
2023-05-03T09:54:23.689Z,96985.00
2023-05-03T09:55:27.814Z,96992.06
2023-05-03T09:56:31.150Z,96993.59
2023-05-03T09:57:33.410Z,96998.28
2023-05-03T09:58:35.891Z,97002.94
2023-05-03T09:59:38.775Z,96994.00
2023-05-03T10:00:42.651Z,96992.44
2023-05-03T10:01:45.018Z,96998.97
2023-05-03T10:02:49.309Z,96990.94
2023-05-03T10:03:51.930Z,96987.03
2023-05-03T10:04:57.200Z,96986.31
2023-05-03T10:06:03.944Z,96986.41
2023-05-03T10:07:16.629Z,96981.06
2023-05-03T10:08:41.266Z,96975.78
2023-05-03T10:09:44.716Z,96975.06
2023-05-03T10:10:51.925Z,96970.44
2023-05-03T10:11:54.673Z,96977.44
2023-05-03T10:12:56.447Z,96972.41
2023-05-03T10:13:58.215Z,96982.16
2023-05-03T10:15:01.311Z,96972.53
2023-05-03T10:16:11.985Z,96973.31
2023-05-03T10:17:16.449Z,96963.22
2023-05-03T10:18:20.974Z,96962.06
2023-05-03T10:19:41.759Z,96962.06
2023-05-03T10:20:54.879Z,96962.84
2023-05-03T10:22:04.291Z,96965.22
2023-05-03T10:23:06.186Z,96959.34
2023-05-03T10:24:11.859Z,96953.56
2023-05-03T10:25:14.133Z,96948.91
2023-05-03T10:26:17.485Z,96950.44
2023-05-03T10:27:19.450Z,96957.31
2023-05-03T10:28:21.236Z,96955.59
2023-05-03T10:29:35.055Z,96956.34
2023-05-03T10:30:40.655Z,96959.50
2023-05-03T10:31:47.432Z,96947.44
2023-05-03T10:32:49.371Z,96951.34
2023-05-03T10:33:51.244Z,96942.44
2023-05-03T10:35:03.676Z,96942.88
2023-05-03T10:36:07.723Z,96944.84
2023-05-03T10:37:11.523Z,96937.34
2023-05-03T10:38:24.504Z,96941.28
2023-05-03T10:39:27.874Z,96942.44
2023-05-03T10:40:43.041Z,96951.72
2023-05-03T10:41:45.525Z,96938.88
2023-05-03T10:42:55.376Z,96948.97
2023-05-03T10:43:57.789Z,96950.13
2023-05-03T10:45:01.897Z,96939.31
2023-05-03T10:46:08.887Z,96934.66
2023-05-03T10:47:17.155Z,96938.84
2023-05-03T10:48:20.970Z,96940.72
2023-05-03T10:49:24.196Z,96937.22
2023-05-03T10:50:26.384Z,96937.22
2023-05-03T10:51:29.029Z,96930.56
2023-05-03T10:52:36.435Z,96927.00
2023-05-03T10:53:42.741Z,96927.41
2023-05-03T10:54:44.295Z,96925.13
2023-05-03T10:56:08.072Z,96926.72
2023-05-03T10:57:10.588Z,96918.28
2023-05-03T10:58:16.708Z,96923.78
2023-05-03T10:59:18.414Z,96923.84
2023-05-03T11:00:51.407Z,96921.59
2023-05-03T11:01:53.450Z,96920.09
2023-05-03T11:03:35.943Z,96920.97
2023-05-03T11:04:44.762Z,96927.91
2023-05-03T11:05:48.554Z,96935.88
2023-05-03T11:06:52.069Z,96925.00
2023-05-03T11:08:07.308Z,96925.38
2023-05-03T11:09:10.458Z,96923.06
2023-05-03T11:10:19.105Z,96911.06
2023-05-03T11:11:21.632Z,96912.28
2023-05-03T11:12:23.351Z,96909.19
2023-05-03T11:13:24.944Z,96910.03
2023-05-03T11:14:26.614Z,96913.19
2023-05-03T11:15:28.289Z,96909.31
2023-05-03T11:16:31.108Z,96904.28
2023-05-03T11:17:32.936Z,96908.16
2023-05-03T11:18:34.697Z,96903.09
2023-05-03T11:19:36.349Z,96905.41
2023-05-03T11:20:38.351Z,96903.50
2023-05-03T11:21:40.552Z,96900.06
2023-05-03T11:22:42.210Z,96907.84
2023-05-03T11:23:44.569Z,96891.56
2023-05-03T11:24:47.149Z,96900.88
2023-05-03T11:25:48.675Z,96905.50
2023-05-03T11:26:50.504Z,96905.44
2023-05-03T11:27:52.202Z,96906.53
2023-05-03T11:28:54.343Z,96900.75
2023-05-03T11:29:58.601Z,96896.81
2023-05-03T11:31:02.140Z,96895.25
2023-05-03T11:32:03.848Z,96888.56
2023-05-03T11:33:06.888Z,96882.94
2023-05-03T11:34:10.310Z,96880.22
2023-05-03T11:35:17.661Z,96893.72
2023-05-03T11:36:20.253Z,96884.78
2023-05-03T11:37:22.350Z,96887.06
2023-05-03T11:38:23.928Z,96888.19
2023-05-03T11:39:25.905Z,96888.59
2023-05-03T11:40:27.827Z,96888.63
2023-05-03T11:41:29.395Z,96893.22
2023-05-03T11:42:31.109Z,96892.06
2023-05-03T11:43:32.682Z,96885.50
2023-05-03T11:44:34.601Z,96882.78
2023-05-03T11:45:44.158Z,96892.31
2023-05-03T11:46:47.796Z,96896.50
2023-05-03T11:47:49.900Z,96890.63
2023-05-03T11:48:51.564Z,96882.47
2023-05-03T11:49:54.120Z,96889.06
2023-05-03T11:50:56.094Z,96876.63
2023-05-03T11:51:58.145Z,96880.50
2023-05-03T11:52:59.892Z,96882.94
2023-05-03T11:54:12.814Z,96882.94
2023-05-03T11:55:23.957Z,96883.72
2023-05-03T11:56:25.671Z,96890.38
2023-05-03T11:57:27.441Z,96890.28
2023-05-03T11:58:28.995Z,96887.94
2023-05-03T11:59:40.203Z,96898.38
2023-05-03T12:00:47.151Z,96905.31
2023-05-03T12:01:49.594Z,96893.69
2023-05-03T12:02:51.870Z,96913.47
2023-05-03T12:03:59.420Z,96902.25
2023-05-03T12:05:02.359Z,96906.03
2023-05-03T12:06:06.565Z,96907.19
2023-05-03T12:07:10.698Z,96902.84
2023-05-03T12:08:15.007Z,96905.00
2023-05-03T12:09:18.198Z,96929.66
2023-05-03T12:10:25.739Z,96924.91
2023-05-03T12:11:30.522Z,96922.56
2023-05-03T12:13:39.779Z,96938.69
2023-05-03T12:15:11.268Z,96943.13
2023-05-03T12:16:15.690Z,96945.38
2023-05-03T12:17:42.859Z,96949.63
2023-05-03T12:18:52.388Z,96953.00
2023-05-03T12:20:51.329Z,96937.75
2023-05-03T12:21:59.300Z,96938.53
2023-05-03T12:23:10.518Z,96929.56
2023-05-03T12:24:14.852Z,96926.44
2023-05-03T12:25:19.176Z,96926.44
2023-05-03T12:26:22.387Z,96916.59
2023-05-03T12:27:24.168Z,96916.31
2023-05-03T12:28:26.056Z,96919.75